sensor_id;sensor_type;location;lat;lon;timestamp;pressure;altitude;pressure_sealevel;temperature;humidity
78488;BME280;67885;49.758;9.582;2024-02-14T00:00:02;99635.22;;;10.23;48.74
78488;BME280;67885;49.758;9.582;2024-02-14T00:02:29;99615.25;;;10.06;48.80
78488;BME280;67885;49.758;9.582;2024-02-14T00:04:57;99637.13;;;10.21;49.27
78488;BME280;67885;49.758;9.582;2024-02-14T00:07:23;99638.31;;;10.17;48.82
78488;BME280;67885;49.758;9.582;2024-02-14T00:09:52;99634.94;;;10.15;48.49
78488;BME280;67885;49.758;9.582;2024-02-14T00:12:18;99631.34;;;10.16;48.95
78488;BME280;67885;49.758;9.582;2024-02-14T00:14:45;99613.59;;;10.05;48.69
78488;BME280;67885;49.758;9.582;2024-02-14T00:17:11;99635.78;;;10.16;48.49
78488;BME280;67885;49.758;9.582;2024-02-14T00:19:38;99631.75;;;10.10;48.67
78488;BME280;67885;49.758;9.582;2024-02-14T00:22:06;99639.06;;;10.06;48.84
78488;BME280;67885;49.758;9.582;2024-02-14T00:24:32;99629.56;;;10.04;49.25
78488;BME280;67885;49.758;9.582;2024-02-14T00:27:01;99627.00;;;10.02;49.37
78488;BME280;67885;49.758;9.582;2024-02-14T00:29:28;99621.72;;;10.02;49.25
78488;BME280;67885;49.758;9.582;2024-02-14T00:31:55;99626.41;;;9.99;49.40
78488;BME280;67885;49.758;9.582;2024-02-14T00:34:22;99625.88;;;9.93;49.63
78488;BME280;67885;49.758;9.582;2024-02-14T00:36:49;99618.16;;;9.90;49.33
78488;BME280;67885;49.758;9.582;2024-02-14T00:39:17;99622.69;;;9.88;49.70
78488;BME280;67885;49.758;9.582;2024-02-14T00:41:46;99616.47;;;9.89;50.11
78488;BME280;67885;49.758;9.582;2024-02-14T00:44:13;99620.88;;;9.89;49.78
78488;BME280;67885;49.758;9.582;2024-02-14T00:46:42;99613.59;;;9.92;49.70
78488;BME280;67885;49.758;9.582;2024-02-14T00:49:09;99625.03;;;9.93;49.69
78488;BME280;67885;49.758;9.582;2024-02-14T00:51:36;99590.78;;;9.78;48.98
78488;BME280;67885;49.758;9.582;2024-02-14T00:54:03;99626.28;;;10.00;49.82
78488;BME280;67885;49.758;9.582;2024-02-14T00:56:31;99628.59;;;10.05;49.13
78488;BME280;67885;49.758;9.582;2024-02-14T00:58:57;99619.59;;;10.07;49.74
78488;BME280;67885;49.758;9.582;2024-02-14T01:01:24;99623.81;;;10.10;49.31
78488;BME280;67885;49.758;9.582;2024-02-14T01:03:50;99624.56;;;10.12;49.24
78488;BME280;67885;49.758;9.582;2024-02-14T01:06:17;99622.75;;;10.12;48.98
78488;BME280;67885;49.758;9.582;2024-02-14T01:08:45;99623.81;;;10.10;49.53
78488;BME280;67885;49.758;9.582;2024-02-14T01:11:11;99620.34;;;10.09;49.30
78488;BME280;67885;49.758;9.582;2024-02-14T01:13:39;99616.34;;;10.04;49.40
78488;BME280;67885;49.758;9.582;2024-02-14T01:16:07;99621.94;;;9.99;50.16
78488;BME280;67885;49.758;9.582;2024-02-14T01:18:33;99623.00;;;9.96;48.76
78488;BME280;67885;49.758;9.582;2024-02-14T01:21:01;99626.00;;;9.92;49.73
78488;BME280;67885;49.758;9.582;2024-02-14T01:23:27;99620.81;;;9.90;50.02
78488;BME280;67885;49.758;9.582;2024-02-14T01:25:54;99613.94;;;9.88;49.57
78488;BME280;67885;49.758;9.582;2024-02-14T01:28:20;99611.47;;;9.85;49.76
78488;BME280;67885;49.758;9.582;2024-02-14T01:30:49;99605.69;;;9.79;50.55
78488;BME280;67885;49.758;9.582;2024-02-14T01:33:15;99613.69;;;9.91;50.32
78488;BME280;67885;49.758;9.582;2024-02-14T01:35:42;99623.94;;;9.95;50.27
78488;BME280;67885;49.758;9.582;2024-02-14T01:38:09;99616.66;;;9.99;50.09
78488;BME280;67885;49.758;9.582;2024-02-14T01:40:37;99611.06;;;10.04;50.82
78488;BME280;67885;49.758;9.582;2024-02-14T01:43:03;99608.06;;;10.08;49.80
78488;BME280;67885;49.758;9.582;2024-02-14T01:45:30;99604.34;;;10.11;50.39
78488;BME280;67885;49.758;9.582;2024-02-14T01:47:57;99608.34;;;10.17;49.99
78488;BME280;67885;49.758;9.582;2024-02-14T01:50:24;99535.84;;;9.82;50.45
78488;BME280;67885;49.758;9.582;2024-02-14T01:52:56;99605.16;;;10.24;49.95
78488;BME280;67885;49.758;9.582;2024-02-14T01:55:25;99599.75;;;10.26;50.43
78488;BME280;67885;49.758;9.582;2024-02-14T01:57:53;99603.25;;;10.26;50.18
78488;BME280;67885;49.758;9.582;2024-02-14T02:00:21;99599.63;;;10.27;49.00
78488;BME280;67885;49.758;9.582;2024-02-14T02:02:48;99593.50;;;10.27;50.28
78488;BME280;67885;49.758;9.582;2024-02-14T02:05:16;99593.28;;;10.30;50.13
78488;BME280;67885;49.758;9.582;2024-02-14T02:07:44;99597.50;;;10.33;49.98
78488;BME280;67885;49.758;9.582;2024-02-14T02:10:13;99597.63;;;10.31;49.83
78488;BME280;67885;49.758;9.582;2024-02-14T02:12:40;99589.06;;;10.27;50.00
78488;BME280;67885;49.758;9.582;2024-02-14T02:15:08;99594.78;;;10.21;51.10
78488;BME280;67885;49.758;9.582;2024-02-14T02:17:36;99593.09;;;10.20;51.27
78488;BME280;67885;49.758;9.582;2024-02-14T02:20:03;99593.00;;;10.22;50.49
78488;BME280;67885;49.758;9.582;2024-02-14T02:22:34;99590.22;;;10.23;49.93
78488;BME280;67885;49.758;9.582;2024-02-14T02:25:04;99590.13;;;10.25;51.04
78488;BME280;67885;49.758;9.582;2024-02-14T02:27:33;99579.41;;;10.26;51.10
78488;BME280;67885;49.758;9.582;2024-02-14T02:30:04;99582.81;;;10.28;49.72
78488;BME280;67885;49.758;9.582;2024-02-14T02:32:30;99571.47;;;10.26;50.25
78488;BME280;67885;49.758;9.582;2024-02-14T02:34:57;99578.81;;;10.23;50.91
78488;BME280;67885;49.758;9.582;2024-02-14T02:37:25;99577.94;;;10.22;51.47
78488;BME280;67885;49.758;9.582;2024-02-14T02:39:53;99573.94;;;10.17;50.88
78488;BME280;67885;49.758;9.582;2024-02-14T02:42:21;99577.66;;;10.14;50.52
78488;BME280;67885;49.758;9.582;2024-02-14T02:44:49;99573.00;;;10.18;49.78
78488;BME280;67885;49.758;9.582;2024-02-14T02:47:15;99563.25;;;10.18;50.10
78488;BME280;67885;49.758;9.582;2024-02-14T02:49:43;99538.75;;;10.03;50.65
78488;BME280;67885;49.758;9.582;2024-02-14T02:52:10;99543.78;;;10.19;49.81
78488;BME280;67885;49.758;9.582;2024-02-14T02:54:36;99546.19;;;10.22;50.80
78488;BME280;67885;49.758;9.582;2024-02-14T02:57:06;99548.59;;;10.25;50.31
78488;BME280;67885;49.758;9.582;2024-02-14T02:59:34;99525.47;;;10.16;50.37
78488;BME280;67885;49.758;9.582;2024-02-14T03:02:01;99541.16;;;10.30;49.98
78488;BME280;67885;49.758;9.582;2024-02-14T03:04:28;99540.97;;;10.34;49.72
78488;BME280;67885;49.758;9.582;2024-02-14T03:06:55;99544.13;;;10.39;49.37
78488;BME280;67885;49.758;9.582;2024-02-14T03:09:21;99543.69;;;10.45;49.37
78488;BME280;67885;49.758;9.582;2024-02-14T03:11:48;99536.47;;;10.47;49.17
78488;BME280;67885;49.758;9.582;2024-02-14T03:14:15;99535.06;;;10.54;48.77
78488;BME280;67885;49.758;9.582;2024-02-14T03:16:43;99543.59;;;10.58;49.04
78488;BME280;67885;49.758;9.582;2024-02-14T03:19:09;99528.22;;;10.63;48.68
78488;BME280;67885;49.758;9.582;2024-02-14T03:21:36;99533.28;;;10.66;48.73
78488;BME280;67885;49.758;9.582;2024-02-14T03:24:03;99529.69;;;10.67;48.95
78488;BME280;67885;49.758;9.582;2024-02-14T03:26:30;99541.13;;;10.68;48.91
78488;BME280;67885;49.758;9.582;2024-02-14T03:28:59;99542.81;;;10.69;48.14
78488;BME280;67885;49.758;9.582;2024-02-14T03:31:26;99546.44;;;10.68;49.58
78488;BME280;67885;49.758;9.582;2024-02-14T03:33:54;99547.50;;;10.65;48.39
78488;BME280;67885;49.758;9.582;2024-02-14T03:36:20;99547.63;;;10.63;48.81
78488;BME280;67885;49.758;9.582;2024-02-14T03:38:48;99549.75;;;10.58;48.53
78488;BME280;67885;49.758;9.582;2024-02-14T03:41:14;99550.09;;;10.54;48.58
78488;BME280;67885;49.758;9.582;2024-02-14T03:43:41;99520.63;;;10.34;49.22
78488;BME280;67885;49.758;9.582;2024-02-14T03:46:08;99548.81;;;10.59;49.25
78488;BME280;67885;49.758;9.582;2024-02-14T03:48:34;99555.28;;;10.55;49.13
78488;BME280;67885;49.758;9.582;2024-02-14T03:51:02;99463.31;;;9.98;48.75
78488;BME280;67885;49.758;9.582;2024-02-14T03:53:29;99563.31;;;10.54;49.25
78488;BME280;67885;49.758;9.582;2024-02-14T03:55:56;99562.50;;;10.53;49.23
78488;BME280;67885;49.758;9.582;2024-02-14T03:58:23;99559.97;;;10.52;49.52
78488;BME280;67885;49.758;9.582;2024-02-14T04:00:50;99566.09;;;10.52;49.68
78488;BME280;67885;49.758;9.582;2024-02-14T04:03:17;99573.84;;;10.55;49.39
78488;BME280;67885;49.758;9.582;2024-02-14T04:05:44;99565.03;;;10.55;49.71
78488;BME280;67885;49.758;9.582;2024-02-14T04:08:14;99566.59;;;10.57;49.77
78488;BME280;67885;49.758;9.582;2024-02-14T04:10:40;99567.13;;;10.62;49.19
78488;BME280;67885;49.758;9.582;2024-02-14T04:13:09;99574.19;;;10.62;49.68
78488;BME280;67885;49.758;9.582;2024-02-14T04:15:35;99572.53;;;10.61;49.36
78488;BME280;67885;49.758;9.582;2024-02-14T04:18:02;99571.66;;;10.60;49.14
78488;BME280;67885;49.758;9.582;2024-02-14T04:20:31;99572.41;;;10.62;49.27
78488;BME280;67885;49.758;9.582;2024-02-14T04:22:58;99572.41;;;10.62;49.60
78488;BME280;67885;49.758;9.582;2024-02-14T04:25:26;99573.88;;;10.67;49.21
78488;BME280;67885;49.758;9.582;2024-02-14T04:27:52;99577.03;;;10.72;49.06
78488;BME280;67885;49.758;9.582;2024-02-14T04:30:19;99569.78;;;10.74;48.76
78488;BME280;67885;49.758;9.582;2024-02-14T04:32:46;99581.13;;;10.76;49.33
78488;BME280;67885;49.758;9.582;2024-02-14T04:35:12;99571.13;;;10.79;49.42
78488;BME280;67885;49.758;9.582;2024-02-14T04:37:39;99569.22;;;10.82;48.11
78488;BME280;67885;49.758;9.582;2024-02-14T04:40:09;99514.81;;;10.53;48.61
78488;BME280;67885;49.758;9.582;2024-02-14T04:42:37;99563.81;;;10.83;48.41
78488;BME280;67885;49.758;9.582;2024-02-14T04:45:04;99567.53;;;10.80;48.29
78488;BME280;67885;49.758;9.582;2024-02-14T04:47:31;99561.41;;;10.80;48.08
78488;BME280;67885;49.758;9.582;2024-02-14T04:49:57;99544.50;;;10.70;48.51
78488;BME280;67885;49.758;9.582;2024-02-14T04:52:25;99559.69;;;10.79;48.22
78488;BME280;67885;49.758;9.582;2024-02-14T04:54:51;99585.38;;;10.78;48.61
78488;BME280;67885;49.758;9.582;2024-02-14T04:57:18;99542.81;;;10.69;48.54
78488;BME280;67885;49.758;9.582;2024-02-14T04:59:46;99558.75;;;10.80;48.43
78488;BME280;67885;49.758;9.582;2024-02-14T05:02:12;99566.59;;;10.82;48.52
78488;BME280;67885;49.758;9.582;2024-02-14T05:04:38;99557.69;;;10.83;48.38
78488;BME280;67885;49.758;9.582;2024-02-14T05:07:05;99590.06;;;10.86;49.46
78488;BME280;67885;49.758;9.582;2024-02-14T05:09:33;99557.19;;;10.89;48.26
78488;BME280;67885;49.758;9.582;2024-02-14T05:11:59;99557.94;;;10.91;49.59
78488;BME280;67885;49.758;9.582;2024-02-14T05:14:26;99563.94;;;10.93;49.26
78488;BME280;67885;49.758;9.582;2024-02-14T05:16:56;99557.81;;;10.92;48.75
78488;BME280;67885;49.758;9.582;2024-02-14T05:19:26;99560.59;;;10.91;48.07
78488;BME280;67885;49.758;9.582;2024-02-14T05:21:54;99568.66;;;10.89;50.05
78488;BME280;67885;49.758;9.582;2024-02-14T05:24:20;99572.25;;;10.88;48.00
78488;BME280;67885;49.758;9.582;2024-02-14T05:26:47;99567.28;;;10.84;47.79
78488;BME280;67885;49.758;9.582;2024-02-14T05:29:14;99578.25;;;10.79;48.53
78488;BME280;67885;49.758;9.582;2024-02-14T05:31:45;99578.25;;;10.79;48.06
78488;BME280;67885;49.758;9.582;2024-02-14T05:34:13;99572.22;;;10.77;48.58
78488;BME280;67885;49.758;9.582;2024-02-14T05:36:39;99570.53;;;10.76;48.48
78488;BME280;67885;49.758;9.582;2024-02-14T05:39:07;99566.19;;;10.75;47.96
78488;BME280;67885;49.758;9.582;2024-02-14T05:41:35;99561.59;;;10.77;53.15
78488;BME280;67885;49.758;9.582;2024-02-14T05:44:01;99563.88;;;11.06;48.13
78488;BME280;67885;49.758;9.582;2024-02-14T05:46:28;99559.09;;;11.22;48.34
78488;BME280;67885;49.758;9.582;2024-02-14T05:48:55;99564.19;;;11.37;47.27
78488;BME280;67885;49.758;9.582;2024-02-14T05:51:24;99569.13;;;11.41;47.28
78488;BME280;67885;49.758;9.582;2024-02-14T05:53:50;99562.59;;;11.45;46.99
78488;BME280;67885;49.758;9.582;2024-02-14T05:56:17;99572.84;;;11.50;47.49
78488;BME280;67885;49.758;9.582;2024-02-14T05:58:43;99568.16;;;11.54;46.29
78488;BME280;67885;49.758;9.582;2024-02-14T06:01:10;99576.34;;;11.62;46.04
78488;BME280;67885;49.758;9.582;2024-02-14T06:03:37;99567.91;;;11.57;46.03
78488;BME280;67885;49.758;9.582;2024-02-14T06:06:03;99568.97;;;11.54;47.02
78488;BME280;67885;49.758;9.582;2024-02-14T06:08:31;99561.66;;;11.46;46.20
78488;BME280;67885;49.758;9.582;2024-02-14T06:10:58;99561.28;;;11.40;47.40
78488;BME280;67885;49.758;9.582;2024-02-14T06:13:24;99560.66;;;11.36;47.86
78488;BME280;67885;49.758;9.582;2024-02-14T06:15:51;99560.03;;;11.33;46.80
78488;BME280;67885;49.758;9.582;2024-02-14T06:18:18;99490.00;;;10.90;46.82
78488;BME280;67885;49.758;9.582;2024-02-14T06:20:44;99562.34;;;11.26;47.17
78488;BME280;67885;49.758;9.582;2024-02-14T06:23:12;99561.13;;;11.19;47.49
78488;BME280;67885;49.758;9.582;2024-02-14T06:25:40;99568.47;;;11.15;47.78
78488;BME280;67885;49.758;9.582;2024-02-14T06:28:06;99555.44;;;11.12;48.92
78488;BME280;67885;49.758;9.582;2024-02-14T06:30:34;99557.25;;;11.11;48.81
78488;BME280;67885;49.758;9.582;2024-02-14T06:33:01;99552.66;;;11.13;48.22
78488;BME280;67885;49.758;9.582;2024-02-14T06:35:28;99549.94;;;11.15;48.74
78488;BME280;67885;49.758;9.582;2024-02-14T06:37:54;99549.94;;;11.15;48.84
78488;BME280;67885;49.758;9.582;2024-02-14T06:40:22;99552.78;;;11.12;48.49
78488;BME280;67885;49.758;9.582;2024-02-14T06:42:50;99551.22;;;11.09;48.71
78488;BME280;67885;49.758;9.582;2024-02-14T06:45:17;99540.34;;;11.01;49.14
78488;BME280;67885;49.758;9.582;2024-02-14T06:47:43;99544.56;;;10.92;48.73
78488;BME280;67885;49.758;9.582;2024-02-14T06:50:10;99569.56;;;11.12;49.48
78488;BME280;67885;49.758;9.582;2024-02-14T06:52:36;99567.75;;;11.13;48.99
78488;BME280;67885;49.758;9.582;2024-02-14T06:55:04;99573.03;;;11.13;49.77
78488;BME280;67885;49.758;9.582;2024-02-14T06:57:30;99579.19;;;11.13;48.81
78488;BME280;67885;49.758;9.582;2024-02-14T06:59:58;99581.75;;;11.15;49.46
78488;BME280;67885;49.758;9.582;2024-02-14T07:02:25;99582.44;;;11.17;49.20
78488;BME280;67885;49.758;9.582;2024-02-14T07:04:53;99580.53;;;11.19;49.75
78488;BME280;67885;49.758;9.582;2024-02-14T07:07:20;99537.81;;;10.88;50.16
78488;BME280;67885;49.758;9.582;2024-02-14T07:09:46;99587.19;;;11.25;49.99
78488;BME280;67885;49.758;9.582;2024-02-14T07:12:13;99588.50;;;11.30;49.37
78488;BME280;67885;49.758;9.582;2024-02-14T07:14:39;99593.56;;;11.34;49.83
78488;BME280;67885;49.758;9.582;2024-02-14T07:17:08;99603.97;;;11.37;49.58
78488;BME280;67885;49.758;9.582;2024-02-14T07:19:34;99601.06;;;11.40;49.79
78488;BME280;67885;49.758;9.582;2024-02-14T07:22:01;99606.00;;;11.44;49.90
78488;BME280;67885;49.758;9.582;2024-02-14T07:24:28;99593.47;;;11.46;50.29
78488;BME280;67885;49.758;9.582;2024-02-14T07:26:54;99594.31;;;11.47;49.88
78488;BME280;67885;49.758;9.582;2024-02-14T07:29:22;99605.75;;;11.47;49.55
78488;BME280;67885;49.758;9.582;2024-02-14T07:31:48;99601.31;;;11.48;49.77
78488;BME280;67885;49.758;9.582;2024-02-14T07:34:16;99605.66;;;11.49;48.81
78488;BME280;67885;49.758;9.582;2024-02-14T07:36:43;99612.53;;;11.52;50.16
78488;BME280;67885;49.758;9.582;2024-02-14T07:39:11;99610.72;;;11.52;49.71
78488;BME280;67885;49.758;9.582;2024-02-14T07:41:38;99621.06;;;11.55;50.33
78488;BME280;67885;49.758;9.582;2024-02-14T07:44:04;99614.69;;;11.58;50.14
78488;BME280;67885;49.758;9.582;2024-02-14T07:46:31;99624.47;;;11.57;49.89
78488;BME280;67885;49.758;9.582;2024-02-14T07:48:58;99625.44;;;11.56;49.83
78488;BME280;67885;49.758;9.582;2024-02-14T07:51:26;99629.66;;;11.59;51.00
78488;BME280;67885;49.758;9.582;2024-02-14T07:53:54;99624.34;;;11.59;51.09
78488;BME280;67885;49.758;9.582;2024-02-14T07:56:20;99622.53;;;11.59;50.73
78488;BME280;67885;49.758;9.582;2024-02-14T07:58:47;99631.22;;;11.61;50.20
78488;BME280;67885;49.758;9.582;2024-02-14T08:01:15;99623.97;;;11.63;51.28
78488;BME280;67885;49.758;9.582;2024-02-14T08:03:41;99623.84;;;11.65;50.97
78488;BME280;67885;49.758;9.582;2024-02-14T08:06:08;99545.84;;;11.22;51.56
78488;BME280;67885;49.758;9.582;2024-02-14T08:08:36;99611.31;;;11.67;52.13
78488;BME280;67885;49.758;9.582;2024-02-14T08:11:03;99611.19;;;11.69;52.11
78488;BME280;67885;49.758;9.582;2024-02-14T08:13:29;99610.13;;;11.71;51.16
78488;BME280;67885;49.758;9.582;2024-02-14T08:15:56;99613.59;;;11.72;52.08
78488;BME280;67885;49.758;9.582;2024-02-14T08:18:23;99611.56;;;11.75;51.91
78488;BME280;67885;49.758;9.582;2024-02-14T08:20:52;99609.41;;;11.80;51.85
78488;BME280;67885;49.758;9.582;2024-02-14T08:23:19;99606.25;;;11.87;52.53
78488;BME280;67885;49.758;9.582;2024-02-14T08:25:47;99613.66;;;11.94;52.37
78488;BME280;67885;49.758;9.582;2024-02-14T08:28:15;99591.06;;;11.89;52.40
78488;BME280;67885;49.758;9.582;2024-02-14T08:30:43;99618.22;;;12.04;51.99
78488;BME280;67885;49.758;9.582;2024-02-14T08:33:10;99616.19;;;12.07;52.78
78488;BME280;67885;49.758;9.582;2024-02-14T08:35:37;99613.28;;;12.10;52.11
78488;BME280;67885;49.758;9.582;2024-02-14T08:38:03;99617.00;;;12.19;52.69
78488;BME280;67885;49.758;9.582;2024-02-14T08:40:31;99603.94;;;12.27;52.79
78488;BME280;67885;49.758;9.582;2024-02-14T08:42:59;99610.00;;;12.29;52.08
78488;BME280;67885;49.758;9.582;2024-02-14T08:45:26;99608.78;;;12.34;52.53
78488;BME280;67885;49.758;9.582;2024-02-14T08:47:55;99604.06;;;12.37;52.15
78488;BME280;67885;49.758;9.582;2024-02-14T08:50:21;99584.56;;;12.16;52.28
78488;BME280;67885;49.758;9.582;2024-02-14T08:52:48;99614.03;;;12.45;53.33
78488;BME280;67885;49.758;9.582;2024-02-14T08:55:14;99598.03;;;12.35;53.41
78488;BME280;67885;49.758;9.582;2024-02-14T08:57:43;99624.66;;;12.45;52.97
78488;BME280;67885;49.758;9.582;2024-02-14T09:00:15;99621.19;;;12.44;52.90
78488;BME280;67885;49.758;9.582;2024-02-14T09:02:45;99624.09;;;12.41;54.05
78488;BME280;67885;49.758;9.582;2024-02-14T09:05:13;99623.50;;;12.38;54.17
78488;BME280;67885;49.758;9.582;2024-02-14T09:07:39;99593.97;;;12.20;53.90
78488;BME280;67885;49.758;9.582;2024-02-14T09:10:07;99628.41;;;12.42;54.77
78488;BME280;67885;49.758;9.582;2024-02-14T09:12:35;99619.50;;;12.43;54.17
78488;BME280;67885;49.758;9.582;2024-02-14T09:15:03;99628.06;;;12.47;55.25
78488;BME280;67885;49.758;9.582;2024-02-14T09:17:32;99629.38;;;12.53;54.34
78488;BME280;67885;49.758;9.582;2024-02-14T09:19:58;99625.50;;;12.57;54.52
78488;BME280;67885;49.758;9.582;2024-02-14T09:22:25;99639.41;;;12.49;54.54
78488;BME280;67885;49.758;9.582;2024-02-14T09:24:51;99633.19;;;12.60;54.70
78488;BME280;67885;49.758;9.582;2024-02-14T09:27:19;99634.06;;;12.60;55.10
78488;BME280;67885;49.758;9.582;2024-02-14T09:29:46;99630.31;;;12.63;54.85
78488;BME280;67885;49.758;9.582;2024-02-14T09:32:13;99624.88;;;12.64;54.99
78488;BME280;67885;49.758;9.582;2024-02-14T09:34:41;99621.97;;;12.68;54.62
78488;BME280;67885;49.758;9.582;2024-02-14T09:37:07;99623.66;;;12.69;54.53
78488;BME280;67885;49.758;9.582;2024-02-14T09:39:34;99627.13;;;12.69;54.70
78488;BME280;67885;49.758;9.582;2024-02-14T09:42:08;99637.66;;;12.71;54.79
78488;BME280;67885;49.758;9.582;2024-02-14T09:44:35;99637.50;;;12.72;55.16
78488;BME280;67885;49.758;9.582;2024-02-14T09:47:05;99643.31;;;12.77;55.43
78488;BME280;67885;49.758;9.582;2024-02-14T09:49:35;99646.81;;;12.78;54.54
78488;BME280;67885;49.758;9.582;2024-02-14T09:52:05;99641.94;;;12.83;55.50
78488;BME280;67885;49.758;9.582;2024-02-14T09:54:32;99639.41;;;12.93;55.76
78488;BME280;67885;49.758;9.582;2024-02-14T09:57:01;99635.72;;;13.05;55.91
78488;BME280;67885;49.758;9.582;2024-02-14T09:59:29;99642.19;;;13.12;55.12
78488;BME280;67885;49.758;9.582;2024-02-14T10:01:56;99657.97;;;13.25;55.20
78488;BME280;67885;49.758;9.582;2024-02-14T10:04:23;99641.16;;;13.36;54.60
78488;BME280;67885;49.758;9.582;2024-02-14T10:06:50;99646.38;;;13.47;55.13
78488;BME280;67885;49.758;9.582;2024-02-14T10:09:20;99631.13;;;13.49;55.09
78488;BME280;67885;49.758;9.582;2024-02-14T10:11:47;99642.25;;;13.64;54.39
78488;BME280;67885;49.758;9.582;2024-02-14T10:14:14;99650.97;;;13.66;54.34
78488;BME280;67885;49.758;9.582;2024-02-14T10:16:40;99637.66;;;13.66;53.79
78488;BME280;67885;49.758;9.582;2024-02-14T10:19:14;99645.94;;;13.63;53.92
78488;BME280;67885;49.758;9.582;2024-02-14T10:21:41;99638.63;;;13.65;53.98
78488;BME280;67885;49.758;9.582;2024-02-14T10:24:08;99620.75;;;13.46;54.05
78488;BME280;67885;49.758;9.582;2024-02-14T10:26:37;99601.66;;;13.20;54.42
78488;BME280;67885;49.758;9.582;2024-02-14T10:29:05;99628.22;;;13.53;54.52
78488;BME280;67885;49.758;9.582;2024-02-14T10:31:35;99648.47;;;13.65;54.78
78488;BME280;67885;49.758;9.582;2024-02-14T10:34:02;99645.38;;;13.70;54.77
78488;BME280;67885;49.758;9.582;2024-02-14T10:36:32;99650.19;;;13.76;55.18
78488;BME280;67885;49.758;9.582;2024-02-14T10:39:00;99651.63;;;13.80;54.28
78488;BME280;67885;49.758;9.582;2024-02-14T10:41:30;99658.63;;;13.81;55.07
78488;BME280;67885;49.758;9.582;2024-02-14T10:44:03;99664.66;;;13.83;54.69
78488;BME280;67885;49.758;9.582;2024-02-14T10:46:32;99660.56;;;13.79;54.30
78488;BME280;67885;49.758;9.582;2024-02-14T10:49:03;99656.94;;;13.80;54.53
78488;BME280;67885;49.758;9.582;2024-02-14T10:51:31;99651.63;;;13.80;54.80
78488;BME280;67885;49.758;9.582;2024-02-14T10:54:00;99654.28;;;13.80;55.17
78488;BME280;67885;49.758;9.582;2024-02-14T10:56:28;99646.00;;;13.83;54.86
78488;BME280;67885;49.758;9.582;2024-02-14T10:58:56;99654.72;;;13.85;55.25
78488;BME280;67885;49.758;9.582;2024-02-14T11:01:27;99658.22;;;13.86;54.79
78488;BME280;67885;49.758;9.582;2024-02-14T11:03:58;99662.13;;;13.81;55.20
78488;BME280;67885;49.758;9.582;2024-02-14T11:06:25;99668.41;;;13.80;55.89
78488;BME280;67885;49.758;9.582;2024-02-14T11:09:00;99674.16;;;13.76;55.82
78488;BME280;67885;49.758;9.582;2024-02-14T11:11:32;99665.31;;;13.75;55.85
78488;BME280;67885;49.758;9.582;2024-02-14T11:13:59;99671.75;;;13.73;56.42
78488;BME280;67885;49.758;9.582;2024-02-14T11:16:28;99676.09;;;13.74;56.24
78488;BME280;67885;49.758;9.582;2024-02-14T11:19:06;99660.53;;;13.48;56.08
78488;BME280;67885;49.758;9.582;2024-02-14T11:21:35;99673.41;;;13.74;56.92
78488;BME280;67885;49.758;9.582;2024-02-14T11:24:04;99665.31;;;13.75;56.57
78488;BME280;67885;49.758;9.582;2024-02-14T11:26:39;99668.41;;;13.80;56.79
78488;BME280;67885;49.758;9.582;2024-02-14T11:29:06;99668.16;;;13.83;56.22
78488;BME280;67885;49.758;9.582;2024-02-14T11:31:36;99673.09;;;13.88;56.12
78488;BME280;67885;49.758;9.582;2024-02-14T11:34:04;99665.78;;;13.90;56.53
78488;BME280;67885;49.758;9.582;2024-02-14T11:36:31;99667.81;;;13.98;56.18
78488;BME280;67885;49.758;9.582;2024-02-14T11:38:58;99675.50;;;14.01;55.56
78488;BME280;67885;49.758;9.582;2024-02-14T11:41:27;99692.22;;;14.03;56.60
78488;BME280;67885;49.758;9.582;2024-02-14T11:43:53;99674.84;;;14.09;56.59
78488;BME280;67885;49.758;9.582;2024-02-14T11:46:20;99676.59;;;14.20;56.48
78488;BME280;67885;49.758;9.582;2024-02-14T11:48:48;99675.47;;;14.22;55.93
78488;BME280;67885;49.758;9.582;2024-02-14T11:51:15;99675.47;;;14.22;55.89
78488;BME280;67885;49.758;9.582;2024-02-14T11:53:41;99680.81;;;14.22;55.78
78488;BME280;67885;49.758;9.582;2024-02-14T11:56:08;99676.44;;;14.21;56.01
78488;BME280;67885;49.758;9.582;2024-02-14T11:58:35;99666.75;;;14.20;56.09
78488;BME280;67885;49.758;9.582;2024-02-14T12:01:03;99672.16;;;14.30;56.34
78488;BME280;67885;49.758;9.582;2024-02-14T12:03:31;99664.31;;;14.38;55.97
78488;BME280;67885;49.758;9.582;2024-02-14T12:06:00;99664.47;;;14.46;55.16
78488;BME280;67885;49.758;9.582;2024-02-14T12:08:27;99651.53;;;14.32;54.45
78488;BME280;67885;49.758;9.582;2024-02-14T12:10:54;99664.31;;;14.38;54.83
78488;BME280;67885;49.758;9.582;2024-02-14T12:13:21;99669.78;;;14.37;55.40
78488;BME280;67885;49.758;9.582;2024-02-14T12:15:50;99636.19;;;14.14;54.76
78488;BME280;67885;49.758;9.582;2024-02-14T12:18:18;99666.41;;;14.34;55.23
78488;BME280;67885;49.758;9.582;2024-02-14T12:20:45;99649.53;;;14.24;55.00
78488;BME280;67885;49.758;9.582;2024-02-14T12:23:16;99655.00;;;14.23;55.61
78488;BME280;67885;49.758;9.582;2024-02-14T12:25:44;99662.84;;;14.24;56.21
78488;BME280;67885;49.758;9.582;2024-02-14T12:28:13;99666.69;;;14.31;55.89
78488;BME280;67885;49.758;9.582;2024-02-14T12:30:45;99669.88;;;14.35;55.98
78488;BME280;67885;49.758;9.582;2024-02-14T12:33:14;99595.88;;;13.88;55.34
78488;BME280;67885;49.758;9.582;2024-02-14T12:35:42;99665.03;;;14.50;55.14
78488;BME280;67885;49.758;9.582;2024-02-14T12:38:10;99663.50;;;14.47;55.41
78488;BME280;67885;49.758;9.582;2024-02-14T12:40:38;99655.91;;;14.43;55.45
78488;BME280;67885;49.758;9.582;2024-02-14T12:43:07;99669.94;;;14.45;54.61
78488;BME280;67885;49.758;9.582;2024-02-14T12:45:33;99675.94;;;14.37;54.15
78488;BME280;67885;49.758;9.582;2024-02-14T12:48:00;99677.63;;;14.28;54.79
78488;BME280;67885;49.758;9.582;2024-02-14T12:50:27;99668.06;;;14.26;54.35
78488;BME280;67885;49.758;9.582;2024-02-14T12:52:53;99675.06;;;14.27;55.12
78488;BME280;67885;49.758;9.582;2024-02-14T12:55:21;99672.16;;;14.30;55.12
78488;BME280;67885;49.758;9.582;2024-02-14T12:57:50;99666.69;;;14.31;54.71
78488;BME280;67885;49.758;9.582;2024-02-14T13:00:17;99662.91;;;14.34;54.94